sensor_id;sensor_type;location;lat;lon;timestamp;P1;durP1;ratioP1;P2;durP2;ratioP2
38226;SDS011;24026;49.446;8.576;2023-08-01T00:01:57;133.05;;;121.65;;
38226;SDS011;24026;49.446;8.576;2023-08-01T00:04:18;134.88;;;123.32;;
38226;SDS011;24026;49.446;8.576;2023-08-01T00:06:38;133.57;;;121.93;;
38226;SDS011;24026;49.446;8.576;2023-08-01T00:08:59;133.10;;;121.60;;
38226;SDS011;24026;49.446;8.576;2023-08-01T00:11:19;133.27;;;121.68;;
38226;SDS011;24026;49.446;8.576;2023-08-01T00:13:40;134.77;;;123.28;;
38226;SDS011;24026;49.446;8.576;2023-08-01T00:16:00;134.07;;;122.35;;
38226;SDS011;24026;49.446;8.576;2023-08-01T00:18:21;134.48;;;122.93;;
38226;SDS011;24026;49.446;8.576;2023-08-01T00:20:41;134.00;;;122.50;;
38226;SDS011;24026;49.446;8.576;2023-08-01T00:23:01;133.48;;;122.10;;
38226;SDS011;24026;49.446;8.576;2023-08-01T00:25:22;133.73;;;122.22;;
38226;SDS011;24026;49.446;8.576;2023-08-01T00:27:42;132.65;;;121.15;;
38226;SDS011;24026;49.446;8.576;2023-08-01T00:30:03;133.18;;;121.80;;
38226;SDS011;24026;49.446;8.576;2023-08-01T00:32:23;133.85;;;122.25;;
38226;SDS011;24026;49.446;8.576;2023-08-01T00:34:44;133.40;;;122.00;;
38226;SDS011;24026;49.446;8.576;2023-08-01T00:37:04;133.95;;;122.43;;
38226;SDS011;24026;49.446;8.576;2023-08-01T00:39:25;133.60;;;122.10;;
38226;SDS011;24026;49.446;8.576;2023-08-01T00:41:45;132.52;;;121.20;;
38226;SDS011;24026;49.446;8.576;2023-08-01T00:44:06;133.38;;;121.78;;
38226;SDS011;24026;49.446;8.576;2023-08-01T00:46:26;135.60;;;123.82;;
38226;SDS011;24026;49.446;8.576;2023-08-01T00:48:46;134.40;;;122.80;;
38226;SDS011;24026;49.446;8.576;2023-08-01T00:51:07;134.70;;;123.10;;
38226;SDS011;24026;49.446;8.576;2023-08-01T00:53:30;132.75;;;121.15;;
38226;SDS011;24026;49.446;8.576;2023-08-01T00:55:54;132.23;;;120.90;;
38226;SDS011;24026;49.446;8.576;2023-08-01T00:58:15;131.20;;;119.90;;
38226;SDS011;24026;49.446;8.576;2023-08-01T01:00:35;132.27;;;120.97;;
38226;SDS011;24026;49.446;8.576;2023-08-01T01:02:56;133.75;;;122.07;;
38226;SDS011;24026;49.446;8.576;2023-08-01T01:05:16;133.30;;;121.90;;
38226;SDS011;24026;49.446;8.576;2023-08-01T01:07:37;133.52;;;121.93;;
38226;SDS011;24026;49.446;8.576;2023-08-01T01:09:59;133.75;;;122.15;;
38226;SDS011;24026;49.446;8.576;2023-08-01T01:12:20;133.82;;;122.15;;
38226;SDS011;24026;49.446;8.576;2023-08-01T01:14:40;133.25;;;121.85;;
38226;SDS011;24026;49.446;8.576;2023-08-01T01:17:01;132.00;;;120.70;;
38226;SDS011;24026;49.446;8.576;2023-08-01T01:19:22;134.75;;;123.25;;
38226;SDS011;24026;49.446;8.576;2023-08-01T01:22:01;133.52;;;122.13;;
38226;SDS011;24026;49.446;8.576;2023-08-01T01:24:24;132.95;;;121.55;;
38226;SDS011;24026;49.446;8.576;2023-08-01T01:26:47;132.40;;;121.03;;
38226;SDS011;24026;49.446;8.576;2023-08-01T01:29:09;135.10;;;123.50;;
38226;SDS011;24026;49.446;8.576;2023-08-01T01:31:33;131.80;;;120.50;;
38226;SDS011;24026;49.446;8.576;2023-08-01T01:33:54;132.95;;;121.55;;
38226;SDS011;24026;49.446;8.576;2023-08-01T01:36:15;132.90;;;121.40;;
38226;SDS011;24026;49.446;8.576;2023-08-01T01:38:35;131.73;;;120.40;;
38226;SDS011;24026;49.446;8.576;2023-08-01T01:40:56;133.27;;;121.90;;
38226;SDS011;24026;49.446;8.576;2023-08-01T01:43:16;134.00;;;122.32;;
38226;SDS011;24026;49.446;8.576;2023-08-01T01:45:36;132.88;;;121.47;;
38226;SDS011;24026;49.446;8.576;2023-08-01T01:47:57;132.95;;;121.45;;
38226;SDS011;24026;49.446;8.576;2023-08-01T01:50:17;133.35;;;121.95;;
38226;SDS011;24026;49.446;8.576;2023-08-01T01:52:38;133.77;;;121.78;;
38226;SDS011;24026;49.446;8.576;2023-08-01T01:54:58;132.20;;;120.65;;
38226;SDS011;24026;49.446;8.576;2023-08-01T01:57:19;131.20;;;119.38;;
38226;SDS011;24026;49.446;8.576;2023-08-01T01:59:39;131.65;;;120.25;;
38226;SDS011;24026;49.446;8.576;2023-08-01T02:02:00;132.52;;;120.97;;
38226;SDS011;24026;49.446;8.576;2023-08-01T02:04:20;131.63;;;120.07;;
38226;SDS011;24026;49.446;8.576;2023-08-01T02:06:41;132.38;;;120.97;;
38226;SDS011;24026;49.446;8.576;2023-08-01T02:09:02;132.10;;;120.70;;
38226;SDS011;24026;49.446;8.576;2023-08-01T02:11:23;131.70;;;120.28;;
38226;SDS011;24026;49.446;8.576;2023-08-01T02:13:43;130.73;;;119.43;;
38226;SDS011;24026;49.446;8.576;2023-08-01T02:16:04;131.43;;;119.97;;
38226;SDS011;24026;49.446;8.576;2023-08-01T02:18:24;131.57;;;120.07;;
38226;SDS011;24026;49.446;8.576;2023-08-01T02:20:45;131.75;;;120.35;;
38226;SDS011;24026;49.446;8.576;2023-08-01T02:23:05;133.57;;;121.88;;
38226;SDS011;24026;49.446;8.576;2023-08-01T02:25:25;132.20;;;120.47;;
38226;SDS011;24026;49.446;8.576;2023-08-01T02:27:46;130.40;;;119.05;;
38226;SDS011;24026;49.446;8.576;2023-08-01T02:30:06;130.20;;;118.90;;
38226;SDS011;24026;49.446;8.576;2023-08-01T02:32:27;131.38;;;119.97;;
38226;SDS011;24026;49.446;8.576;2023-08-01T02:34:47;131.68;;;120.20;;
38226;SDS011;24026;49.446;8.576;2023-08-01T02:37:08;131.95;;;120.45;;
38226;SDS011;24026;49.446;8.576;2023-08-01T02:39:28;131.93;;;120.22;;
38226;SDS011;24026;49.446;8.576;2023-08-01T02:41:48;130.75;;;119.32;;
38226;SDS011;24026;49.446;8.576;2023-08-01T02:44:09;131.77;;;120.45;;
38226;SDS011;24026;49.446;8.576;2023-08-01T02:46:29;131.43;;;120.13;;
38226;SDS011;24026;49.446;8.576;2023-08-01T02:48:51;131.57;;;120.22;;
38226;SDS011;24026;49.446;8.576;2023-08-01T02:51:12;130.90;;;119.60;;
38226;SDS011;24026;49.446;8.576;2023-08-01T02:53:32;132.07;;;120.70;;
38226;SDS011;24026;49.446;8.576;2023-08-01T02:55:52;131.35;;;119.35;;
38226;SDS011;24026;49.446;8.576;2023-08-01T02:58:13;133.25;;;121.65;;
38226;SDS011;24026;49.446;8.576;2023-08-01T03:00:33;130.57;;;119.07;;
38226;SDS011;24026;49.446;8.576;2023-08-01T03:02:57;130.73;;;119.38;;
38226;SDS011;24026;49.446;8.576;2023-08-01T03:05:17;131.65;;;120.25;;
38226;SDS011;24026;49.446;8.576;2023-08-01T03:07:38;131.23;;;119.72;;
38226;SDS011;24026;49.446;8.576;2023-08-01T03:09:58;131.07;;;119.57;;
38226;SDS011;24026;49.446;8.576;2023-08-01T03:12:18;131.43;;;120.00;;
38226;SDS011;24026;49.446;8.576;2023-08-01T03:14:39;131.57;;;120.15;;
38226;SDS011;24026;49.446;8.576;2023-08-01T03:17:01;130.57;;;119.35;;
38226;SDS011;24026;49.446;8.576;2023-08-01T03:19:21;132.38;;;121.07;;
38226;SDS011;24026;49.446;8.576;2023-08-01T03:21:42;132.00;;;120.50;;
38226;SDS011;24026;49.446;8.576;2023-08-01T03:24:03;132.23;;;120.82;;
38226;SDS011;24026;49.446;8.576;2023-08-01T03:26:26;131.35;;;119.75;;
38226;SDS011;24026;49.446;8.576;2023-08-01T03:28:48;132.85;;;121.20;;
38226;SDS011;24026;49.446;8.576;2023-08-01T03:31:08;131.82;;;120.18;;
38226;SDS011;24026;49.446;8.576;2023-08-01T03:33:29;132.52;;;121.03;;
38226;SDS011;24026;49.446;8.576;2023-08-01T03:35:49;130.95;;;119.65;;
38226;SDS011;24026;49.446;8.576;2023-08-01T03:38:10;131.50;;;119.93;;
38226;SDS011;24026;49.446;8.576;2023-08-01T03:40:30;132.82;;;121.30;;
38226;SDS011;24026;49.446;8.576;2023-08-01T03:42:50;133.05;;;121.65;;
38226;SDS011;24026;49.446;8.576;2023-08-01T03:45:11;132.27;;;120.85;;
38226;SDS011;24026;49.446;8.576;2023-08-01T03:47:31;131.80;;;120.35;;
38226;SDS011;24026;49.446;8.576;2023-08-01T03:49:52;134.88;;;123.28;;
38226;SDS011;24026;49.446;8.576;2023-08-01T03:52:12;132.20;;;120.68;;
38226;SDS011;24026;49.446;8.576;2023-08-01T03:54:32;131.18;;;119.80;;
38226;SDS011;24026;49.446;8.576;2023-08-01T03:56:53;130.20;;;118.80;;
38226;SDS011;24026;49.446;8.576;2023-08-01T03:59:14;131.32;;;119.88;;
38226;SDS011;24026;49.446;8.576;2023-08-01T04:01:35;129.18;;;117.90;;
38226;SDS011;24026;49.446;8.576;2023-08-01T04:03:56;130.88;;;119.53;;
38226;SDS011;24026;49.446;8.576;2023-08-01T04:06:16;131.68;;;120.18;;
38226;SDS011;24026;49.446;8.576;2023-08-01T04:08:36;132.75;;;121.15;;
38226;SDS011;24026;49.446;8.576;2023-08-01T04:10:57;133.95;;;122.32;;
38226;SDS011;24026;49.446;8.576;2023-08-01T04:13:17;131.70;;;120.35;;
38226;SDS011;24026;49.446;8.576;2023-08-01T04:15:37;131.70;;;120.28;;
38226;SDS011;24026;49.446;8.576;2023-08-01T04:17:58;133.02;;;121.43;;
38226;SDS011;24026;49.446;8.576;2023-08-01T04:20:18;132.15;;;120.80;;
38226;SDS011;24026;49.446;8.576;2023-08-01T04:22:38;131.80;;;120.38;;
38226;SDS011;24026;49.446;8.576;2023-08-01T04:25:00;130.00;;;118.78;;
38226;SDS011;24026;49.446;8.576;2023-08-01T04:27:21;131.60;;;120.05;;
38226;SDS011;24026;49.446;8.576;2023-08-01T04:29:41;132.27;;;120.82;;
38226;SDS011;24026;49.446;8.576;2023-08-01T04:32:02;132.50;;;121.10;;
38226;SDS011;24026;49.446;8.576;2023-08-01T04:34:22;133.65;;;121.88;;
38226;SDS011;24026;49.446;8.576;2023-08-01T04:36:43;130.75;;;119.53;;
38226;SDS011;24026;49.446;8.576;2023-08-01T04:39:03;131.63;;;120.22;;
38226;SDS011;24026;49.446;8.576;2023-08-01T04:41:23;134.10;;;122.50;;
38226;SDS011;24026;49.446;8.576;2023-08-01T04:43:44;132.35;;;120.82;;
38226;SDS011;24026;49.446;8.576;2023-08-01T04:46:04;131.60;;;120.10;;
38226;SDS011;24026;49.446;8.576;2023-08-01T04:48:25;132.52;;;121.03;;
38226;SDS011;24026;49.446;8.576;2023-08-01T04:50:45;132.45;;;121.03;;
38226;SDS011;24026;49.446;8.576;2023-08-01T04:53:06;134.02;;;122.55;;
38226;SDS011;24026;49.446;8.576;2023-08-01T04:55:28;132.75;;;121.18;;
38226;SDS011;24026;49.446;8.576;2023-08-01T04:57:50;134.02;;;122.20;;
38226;SDS011;24026;49.446;8.576;2023-08-01T05:00:11;131.85;;;120.28;;
38226;SDS011;24026;49.446;8.576;2023-08-01T05:02:32;133.82;;;122.15;;
38226;SDS011;24026;49.446;8.576;2023-08-01T05:04:52;140.93;;;128.65;;
38226;SDS011;24026;49.446;8.576;2023-08-01T05:07:13;141.02;;;128.68;;
38226;SDS011;24026;49.446;8.576;2023-08-01T05:09:35;138.20;;;126.03;;
38226;SDS011;24026;49.446;8.576;2023-08-01T05:11:55;137.32;;;125.28;;
38226;SDS011;24026;49.446;8.576;2023-08-01T05:14:16;138.15;;;125.90;;
38226;SDS011;24026;49.446;8.576;2023-08-01T05:16:36;137.90;;;125.60;;
38226;SDS011;24026;49.446;8.576;2023-08-01T05:18:56;137.88;;;125.82;;
38226;SDS011;24026;49.446;8.576;2023-08-01T05:21:17;135.32;;;123.22;;
38226;SDS011;24026;49.446;8.576;2023-08-01T05:23:37;136.80;;;124.70;;
38226;SDS011;24026;49.446;8.576;2023-08-01T05:25:57;138.63;;;126.22;;
38226;SDS011;24026;49.446;8.576;2023-08-01T05:28:18;138.77;;;126.55;;
38226;SDS011;24026;49.446;8.576;2023-08-01T05:30:38;137.05;;;125.18;;
38226;SDS011;24026;49.446;8.576;2023-08-01T05:33:00;139.38;;;127.10;;
38226;SDS011;24026;49.446;8.576;2023-08-01T05:35:22;139.38;;;127.13;;
38226;SDS011;24026;49.446;8.576;2023-08-01T05:37:43;139.57;;;127.00;;
38226;SDS011;24026;49.446;8.576;2023-08-01T05:40:04;147.13;;;134.13;;
38226;SDS011;24026;49.446;8.576;2023-08-01T05:42:24;148.18;;;135.23;;
38226;SDS011;24026;49.446;8.576;2023-08-01T05:44:45;155.95;;;142.20;;
38226;SDS011;24026;49.446;8.576;2023-08-01T05:47:05;150.52;;;137.23;;
38226;SDS011;24026;49.446;8.576;2023-08-01T05:49:25;154.43;;;139.45;;
38226;SDS011;24026;49.446;8.576;2023-08-01T05:51:46;151.90;;;138.07;;
38226;SDS011;24026;49.446;8.576;2023-08-01T05:54:06;147.63;;;134.13;;
38226;SDS011;24026;49.446;8.576;2023-08-01T05:56:27;149.23;;;134.98;;
38226;SDS011;24026;49.446;8.576;2023-08-01T05:58:47;144.32;;;130.95;;
38226;SDS011;24026;49.446;8.576;2023-08-01T06:01:09;143.13;;;129.63;;
38226;SDS011;24026;49.446;8.576;2023-08-01T06:03:30;143.30;;;130.15;;
38226;SDS011;24026;49.446;8.576;2023-08-01T06:05:52;142.52;;;129.70;;
38226;SDS011;24026;49.446;8.576;2023-08-01T06:08:12;140.55;;;128.27;;
38226;SDS011;24026;49.446;8.576;2023-08-01T06:10:35;141.40;;;128.77;;
38226;SDS011;24026;49.446;8.576;2023-08-01T06:12:56;142.88;;;129.93;;
38226;SDS011;24026;49.446;8.576;2023-08-01T06:15:16;142.38;;;129.18;;
38226;SDS011;24026;49.446;8.576;2023-08-01T06:17:37;146.02;;;132.88;;
38226;SDS011;24026;49.446;8.576;2023-08-01T06:19:57;153.30;;;139.75;;
38226;SDS011;24026;49.446;8.576;2023-08-01T06:22:17;143.13;;;130.13;;
38226;SDS011;24026;49.446;8.576;2023-08-01T06:24:38;142.77;;;129.75;;
38226;SDS011;24026;49.446;8.576;2023-08-01T06:26:58;147.15;;;133.38;;
38226;SDS011;24026;49.446;8.576;2023-08-01T06:29:19;147.95;;;134.15;;
38226;SDS011;24026;49.446;8.576;2023-08-01T06:31:39;142.52;;;129.38;;
38226;SDS011;24026;49.446;8.576;2023-08-01T06:34:00;143.00;;;130.00;;
38226;SDS011;24026;49.446;8.576;2023-08-01T06:36:20;141.73;;;128.13;;
38226;SDS011;24026;49.446;8.576;2023-08-01T06:38:40;143.48;;;130.48;;
38226;SDS011;24026;49.446;8.576;2023-08-01T06:41:01;142.57;;;129.68;;
38226;SDS011;24026;49.446;8.576;2023-08-01T06:43:21;142.50;;;129.50;;
38226;SDS011;24026;49.446;8.576;2023-08-01T06:45:44;141.00;;;128.20;;
38226;SDS011;24026;49.446;8.576;2023-08-01T06:48:04;142.20;;;129.07;;
38226;SDS011;24026;49.446;8.576;2023-08-01T06:50:25;142.30;;;129.25;;
38226;SDS011;24026;49.446;8.576;2023-08-01T06:52:45;141.93;;;129.02;;
38226;SDS011;24026;49.446;8.576;2023-08-01T06:55:07;143.10;;;130.00;;
38226;SDS011;24026;49.446;8.576;2023-08-01T06:57:27;141.00;;;128.18;;
38226;SDS011;24026;49.446;8.576;2023-08-01T06:59:47;143.68;;;129.55;;
38226;SDS011;24026;49.446;8.576;2023-08-01T07:02:10;146.85;;;132.23;;
38226;SDS011;24026;49.446;8.576;2023-08-01T07:04:31;143.02;;;129.35;;
38226;SDS011;24026;49.446;8.576;2023-08-01T07:06:51;142.50;;;129.02;;
38226;SDS011;24026;49.446;8.576;2023-08-01T07:09:13;141.15;;;128.10;;
38226;SDS011;24026;49.446;8.576;2023-08-01T07:11:35;140.38;;;127.55;;
38226;SDS011;24026;49.446;8.576;2023-08-01T07:14:02;143.18;;;129.65;;
38226;SDS011;24026;49.446;8.576;2023-08-01T07:16:23;143.35;;;130.43;;
38226;SDS011;24026;49.446;8.576;2023-08-01T07:18:45;144.63;;;131.73;;
38226;SDS011;24026;49.446;8.576;2023-08-01T07:21:08;148.60;;;135.20;;
38226;SDS011;24026;49.446;8.576;2023-08-01T07:23:29;143.95;;;130.82;;
38226;SDS011;24026;49.446;8.576;2023-08-01T07:25:50;139.02;;;126.35;;
38226;SDS011;24026;49.446;8.576;2023-08-01T07:28:11;137.63;;;125.18;;
38226;SDS011;24026;49.446;8.576;2023-08-01T07:30:31;138.60;;;126.03;;
38226;SDS011;24026;49.446;8.576;2023-08-01T07:32:52;134.23;;;122.32;;
38226;SDS011;24026;49.446;8.576;2023-08-01T07:35:12;137.18;;;124.78;;
38226;SDS011;24026;49.446;8.576;2023-08-01T07:37:33;138.90;;;126.30;;
38226;SDS011;24026;49.446;8.576;2023-08-01T07:39:55;135.15;;;123.07;;
38226;SDS011;24026;49.446;8.576;2023-08-01T07:42:15;135.48;;;123.38;;
38226;SDS011;24026;49.446;8.576;2023-08-01T07:44:36;134.77;;;122.53;;
38226;SDS011;24026;49.446;8.576;2023-08-01T07:46:57;136.43;;;124.10;;
38226;SDS011;24026;49.446;8.576;2023-08-01T07:49:17;134.82;;;122.63;;
38226;SDS011;24026;49.446;8.576;2023-08-01T07:51:38;133.90;;;121.82;;
38226;SDS011;24026;49.446;8.576;2023-08-01T07:53:58;132.85;;;121.05;;
38226;SDS011;24026;49.446;8.576;2023-08-01T07:56:19;131.70;;;120.15;;
38226;SDS011;24026;49.446;8.576;2023-08-01T07:58:40;134.07;;;121.68;;
38226;SDS011;24026;49.446;8.576;2023-08-01T08:01:03;133.07;;;121.15;;
38226;SDS011;24026;49.446;8.576;2023-08-01T08:03:24;131.65;;;119.72;;
38226;SDS011;24026;49.446;8.576;2023-08-01T08:05:45;132.30;;;120.45;;
38226;SDS011;24026;49.446;8.576;2023-08-01T08:08:05;133.95;;;121.97;;
38226;SDS011;24026;49.446;8.576;2023-08-01T08:10:26;134.93;;;123.03;;
38226;SDS011;24026;49.446;8.576;2023-08-01T08:12:47;134.70;;;122.43;;
38226;SDS011;24026;49.446;8.576;2023-08-01T08:15:09;134.65;;;122.95;;
38226;SDS011;24026;49.446;8.576;2023-08-01T08:17:30;134.77;;;122.60;;
38226;SDS011;24026;49.446;8.576;2023-08-01T08:19:50;137.65;;;125.25;;
38226;SDS011;24026;49.446;8.576;2023-08-01T08:22:11;136.95;;;124.60;;
38226;SDS011;24026;49.446;8.576;2023-08-01T08:24:31;136.73;;;124.43;;
38226;SDS011;24026;49.446;8.576;2023-08-01T08:26:53;137.27;;;124.45;;
38226;SDS011;24026;49.446;8.576;2023-08-01T08:29:13;141.38;;;128.32;;
38226;SDS011;24026;49.446;8.576;2023-08-01T08:31:34;142.38;;;129.07;;
38226;SDS011;24026;49.446;8.576;2023-08-01T08:33:54;136.50;;;124.35;;
38226;SDS011;24026;49.446;8.576;2023-08-01T08:36:14;137.05;;;124.63;;
38226;SDS011;24026;49.446;8.576;2023-08-01T08:38:35;140.75;;;128.00;;
38226;SDS011;24026;49.446;8.576;2023-08-01T08:43:27;139.00;;;126.25;;
38226;SDS011;24026;49.446;8.576;2023-08-01T08:45:49;138.15;;;125.95;;
38226;SDS011;24026;49.446;8.576;2023-08-01T08:48:13;139.93;;;127.43;;
38226;SDS011;24026;49.446;8.576;2023-08-01T08:50:38;138.55;;;126.25;;
38226;SDS011;24026;49.446;8.576;2023-08-01T08:52:59;137.25;;;124.95;;
38226;SDS011;24026;49.446;8.576;2023-08-01T08:55:20;138.02;;;125.70;;
38226;SDS011;24026;49.446;8.576;2023-08-01T08:57:42;137.18;;;125.15;;
38226;SDS011;24026;49.446;8.576;2023-08-01T09:00:05;139.43;;;127.20;;
38226;SDS011;24026;49.446;8.576;2023-08-01T09:02:26;140.60;;;128.18;;
38226;SDS011;24026;49.446;8.576;2023-08-01T09:04:47;141.88;;;129.32;;
38226;SDS011;24026;49.446;8.576;2023-08-01T09:07:08;141.75;;;129.10;;
38226;SDS011;24026;49.446;8.576;2023-08-01T09:09:31;137.57;;;125.40;;
38226;SDS011;24026;49.446;8.576;2023-08-01T09:11:54;138.10;;;125.78;;
38226;SDS011;24026;49.446;8.576;2023-08-01T09:14:17;136.23;;;124.40;;
38226;SDS011;24026;49.446;8.576;2023-08-01T09:16:39;137.70;;;125.70;;
38226;SDS011;24026;49.446;8.576;2023-08-01T09:19:02;138.40;;;126.10;;
38226;SDS011;24026;49.446;8.576;2023-08-01T09:21:26;141.45;;;128.27;;
38226;SDS011;24026;49.446;8.576;2023-08-01T09:23:48;142.15;;;129.45;;
38226;SDS011;24026;49.446;8.576;2023-08-01T09:26:15;141.85;;;129.55;;
38226;SDS011;24026;49.446;8.576;2023-08-01T09:28:36;139.40;;;127.28;;
38226;SDS011;24026;49.446;8.576;2023-08-01T09:30:57;139.77;;;127.68;;
38226;SDS011;24026;49.446;8.576;2023-08-01T09:33:17;141.43;;;129.13;;
38226;SDS011;24026;49.446;8.576;2023-08-01T09:35:38;139.15;;;126.88;;
38226;SDS011;24026;49.446;8.576;2023-08-01T09:37:59;141.90;;;129.20;;
38226;SDS011;24026;49.446;8.576;2023-08-01T09:40:20;140.50;;;128.38;;
38226;SDS011;24026;49.446;8.576;2023-08-01T09:42:41;142.77;;;130.27;;
38226;SDS011;24026;49.446;8.576;2023-08-01T09:45:05;142.32;;;129.93;;
38226;SDS011;24026;49.446;8.576;2023-08-01T09:47:35;137.67;;;125.83;;
38226;SDS011;24026;49.446;8.576;2023-08-01T09:49:57;143.20;;;130.63;;
38226;SDS011;24026;49.446;8.576;2023-08-01T09:52:26;142.68;;;130.20;;
38226;SDS011;24026;49.446;8.576;2023-08-01T09:54:47;143.07;;;130.57;;
38226;SDS011;24026;49.446;8.576;2023-08-01T09:57:07;142.70;;;130.07;;
38226;SDS011;24026;49.446;8.576;2023-08-01T09:59:28;140.88;;;128.60;;
38226;SDS011;24026;49.446;8.576;2023-08-01T10:01:51;141.25;;;129.15;;
38226;SDS011;24026;49.446;8.576;2023-08-01T10:04:12;141.40;;;128.85;;
38226;SDS011;24026;49.446;8.576;2023-08-01T10:06:33;139.25;;;126.95;;
38226;SDS011;24026;49.446;8.576;2023-08-01T10:08:57;140.55;;;128.48;;
38226;SDS011;24026;49.446;8.576;2023-08-01T10:11:19;140.63;;;128.35;;
38226;SDS011;24026;49.446;8.576;2023-08-01T10:13:41;141.88;;;128.77;;
38226;SDS011;24026;49.446;8.576;2023-08-01T10:16:03;140.77;;;127.95;;
38226;SDS011;24026;49.446;8.576;2023-08-01T10:18:25;142.65;;;129.13;;
38226;SDS011;24026;49.446;8.576;2023-08-01T10:20:49;143.32;;;130.13;;
38226;SDS011;24026;49.446;8.576;2023-08-01T10:23:10;141.15;;;128.25;;
38226;SDS011;24026;49.446;8.576;2023-08-01T10:25:31;142.57;;;130.05;;
38226;SDS011;24026;49.446;8.576;2023-08-01T10:28:02;142.65;;;130.02;;
38226;SDS011;24026;49.446;8.576;2023-08-01T10:30:27;142.80;;;129.85;;
38226;SDS011;24026;49.446;8.576;2023-08-01T10:32:53;143.20;;;130.10;;
38226;SDS011;24026;49.446;8.576;2023-08-01T10:35:16;142.07;;;129.57;;
38226;SDS011;24026;49.446;8.576;2023-08-01T10:37:54;145.93;;;131.90;;
38226;SDS011;24026;49.446;8.576;2023-08-01T10:40:33;143.70;;;131.10;;
38226;SDS011;24026;49.446;8.576;2023-08-01T10:43:01;143.23;;;130.18;;
38226;SDS011;24026;49.446;8.576;2023-08-01T10:45:22;139.10;;;126.95;;
38226;SDS011;24026;49.446;8.576;2023-08-01T10:47:44;143.32;;;130.40;;
38226;SDS011;24026;49.446;8.576;2023-08-01T10:50:13;143.63;;;130.93;;
38226;SDS011;24026;49.446;8.576;2023-08-01T10:52:34;142.20;;;129.57;;
38226;SDS011;24026;49.446;8.576;2023-08-01T10:57:21;134.80;;;123.10;;
38226;SDS011;24026;49.446;8.576;2023-08-01T10:59:42;136.85;;;124.55;;
38226;SDS011;24026;49.446;8.576;2023-08-01T11:02:03;136.18;;;124.20;;
38226;SDS011;24026;49.446;8.576;2023-08-01T11:04:24;135.63;;;123.85;;
38226;SDS011;24026;49.446;8.576;2023-08-01T11:06:48;136.93;;;125.22;;
38226;SDS011;24026;49.446;8.576;2023-08-01T11:09:16;134.82;;;123.22;;
38226;SDS011;24026;49.446;8.576;2023-08-01T11:11:37;134.32;;;122.28;;
38226;SDS011;24026;49.446;8.576;2023-08-01T11:13:57;134.95;;;123.05;;
38226;SDS011;24026;49.446;8.576;2023-08-01T11:16:22;132.10;;;120.80;;
38226;SDS011;24026;49.446;8.576;2023-08-01T11:18:42;134.02;;;122.43;;
38226;SDS011;24026;49.446;8.576;2023-08-01T11:21:04;136.18;;;124.13;;
38226;SDS011;24026;49.446;8.576;2023-08-01T11:23:28;133.80;;;122.10;;
38226;SDS011;24026;49.446;8.576;2023-08-01T11:25:49;134.68;;;122.95;;
38226;SDS011;24026;49.446;8.576;2023-08-01T11:28:11;136.32;;;123.85;;
38226;SDS011;24026;49.446;8.576;2023-08-01T11:30:35;134.27;;;122.28;;
38226;SDS011;24026;49.446;8.576;2023-08-01T11:32:55;138.48;;;125.82;;
38226;SDS011;24026;49.446;8.576;2023-08-01T11:35:19;135.35;;;123.68;;
38226;SDS011;24026;49.446;8.576;2023-08-01T11:37:39;139.38;;;126.65;;
38226;SDS011;24026;49.446;8.576;2023-08-01T11:40:00;138.15;;;126.38;;
38226;SDS011;24026;49.446;8.576;2023-08-01T11:42:21;141.57;;;128.63;;
38226;SDS011;24026;49.446;8.576;2023-08-01T11:44:41;140.48;;;128.20;;
38226;SDS011;24026;49.446;8.576;2023-08-01T11:47:02;138.75;;;127.05;;
38226;SDS011;24026;49.446;8.576;2023-08-01T11:49:24;139.30;;;127.10;;
38226;SDS011;24026;49.446;8.576;2023-08-01T11:51:46;138.95;;;127.07;;
38226;SDS011;24026;49.446;8.576;2023-08-01T11:54:06;140.57;;;128.75;;
38226;SDS011;24026;49.446;8.576;2023-08-01T11:56:27;141.55;;;129.15;;
38226;SDS011;24026;49.446;8.576;2023-08-01T11:58:48;140.70;;;128.70;;
38226;SDS011;24026;49.446;8.576;2023-08-01T12:01:09;141.13;;;128.98;;
38226;SDS011;24026;49.446;8.576;2023-08-01T12:03:31;144.30;;;131.48;;
38226;SDS011;24026;49.446;8.576;2023-08-01T12:06:01;144.88;;;132.48;;
38226;SDS011;24026;49.446;8.576;2023-08-01T12:08:23;154.32;;;141.02;;
38226;SDS011;24026;49.446;8.576;2023-08-01T12:10:44;146.77;;;134.13;;
38226;SDS011;24026;49.446;8.576;2023-08-01T12:13:05;155.73;;;142.13;;
38226;SDS011;24026;49.446;8.576;2023-08-01T12:15:26;160.73;;;146.25;;
38226;SDS011;24026;49.446;8.576;2023-08-01T12:17:47;156.00;;;141.90;;
38226;SDS011;24026;49.446;8.576;2023-08-01T12:20:08;154.57;;;140.85;;
38226;SDS011;24026;49.446;8.576;2023-08-01T12:22:29;168.35;;;153.63;;
38226;SDS011;24026;49.446;8.576;2023-08-01T12:24:49;176.95;;;160.05;;
38226;SDS011;24026;49.446;8.576;2023-08-01T12:27:10;168.73;;;153.45;;
38226;SDS011;24026;49.446;8.576;2023-08-01T12:29:30;169.43;;;154.05;;
38226;SDS011;24026;49.446;8.576;2023-08-01T12:31:50;158.90;;;144.32;;
38226;SDS011;24026;49.446;8.576;2023-08-01T12:34:11;158.63;;;144.00;;
38226;SDS011;24026;49.446;8.576;2023-08-01T12:36:31;153.15;;;139.10;;
38226;SDS011;24026;49.446;8.576;2023-08-01T12:38:52;158.07;;;143.50;;
38226;SDS011;24026;49.446;8.576;2023-08-01T12:41:13;162.18;;;147.30;;
38226;SDS011;24026;49.446;8.576;2023-08-01T12:43:34;157.18;;;143.38;;
38226;SDS011;24026;49.446;8.576;2023-08-01T12:45:55;158.68;;;144.32;;
38226;SDS011;24026;49.446;8.576;2023-08-01T12:48:18;161.57;;;146.63;;
38226;SDS011;24026;49.446;8.576;2023-08-01T12:50:43;157.52;;;143.40;;
38226;SDS011;24026;49.446;8.576;2023-08-01T12:53:05;154.20;;;140.50;;
38226;SDS011;24026;49.446;8.576;2023-08-01T12:55:25;148.43;;;135.70;;
38226;SDS011;24026;49.446;8.576;2023-08-01T12:57:46;146.70;;;134.02;;
38226;SDS011;24026;49.446;8.576;2023-08-01T13:00:06;151.55;;;138.35;;
38226;SDS011;24026;49.446;8.576;2023-08-01T13:02:30;148.75;;;135.73;;
38226;SDS011;24026;49.446;8.576;2023-08-01T13:04:50;149.55;;;136.85;;
38226;SDS011;24026;49.446;8.576;2023-08-01T13:07:10;147.60;;;134.95;;
38226;SDS011;24026;49.446;8.576;2023-08-01T13:09:31;147.40;;;134.60;;
38226;SDS011;24026;49.446;8.576;2023-08-01T13:11:51;150.90;;;137.85;;
38226;SDS011;24026;49.446;8.576;2023-08-01T13:14:12;148.10;;;135.20;;
38226;SDS011;24026;49.446;8.576;2023-08-01T13:16:32;149.00;;;135.98;;
38226;SDS011;24026;49.446;8.576;2023-08-01T13:18:52;149.63;;;136.82;;
38226;SDS011;24026;49.446;8.576;2023-08-01T13:21:13;149.38;;;136.88;;
38226;SDS011;24026;49.446;8.576;2023-08-01T13:23:34;150.00;;;137.15;;
38226;SDS011;24026;49.446;8.576;2023-08-01T13:25:54;148.32;;;135.73;;
38226;SDS011;24026;49.446;8.576;2023-08-01T13:28:15;145.18;;;132.73;;